Time;durP1;ratioP1;P1;durP2;ratioP2;P2;SDS_P1;SDS_P2;PMS_P1;PMS_P2;Temp;Humidity;BMP_temperature;BMP_pressure;BME280_temperature;BME280_humidity;BME280_pressure;Samples;Min_cycle;Max_cycle;Signal;HPM_P1;HPM_P2
2022/09/29 00:01:22;;;;;;;1.55;1.08;;;23.10;54.90;;;;;;7680321;22;80275;-59
2022/09/29 00:04:22;;;;;;;0.93;0.93;;;23.10;54.80;;;;;;7682154;22;80359;-60
2022/09/29 00:07:23;;;;;;;0.90;0.90;;;23.10;54.90;;;;;;7677290;22;80427;-59
2022/09/29 00:10:23;;;;;;;2.35;1.33;;;23.10;55.00;;;;;;7681759;22;80456;-60
2022/09/29 00:13:24;;;;;;;0.95;0.90;;;23.10;55.10;;;;;;7679433;22;80175;-61
2022/09/29 00:16:24;;;;;;;2.53;1.30;;;23.10;55.10;;;;;;7680182;22;80572;-60
2022/09/29 00:19:27;;;;;;;1.25;1.15;;;23.10;55.10;;;;;;7681137;22;79936;-60
2022/09/29 00:22:28;;;;;;;2.05;1.38;;;23.10;55.20;;;;;;7676928;22;80452;-59
2022/09/29 00:25:28;;;;;;;2.28;1.20;;;23.10;55.20;;;;;;7682071;22;80313;-60
2022/09/29 00:28:29;;;;;;;1.30;1.20;;;23.10;55.20;;;;;;7680709;22;82074;-59
2022/09/29 00:31:29;;;;;;;3.25;1.65;;;23.10;55.80;;;;;;7679424;22;80779;-60
2022/09/29 00:34:30;;;;;;;1.85;1.33;;;23.10;55.10;;;;;;7679727;22;80230;-60
2022/09/29 00:37:30;;;;;;;2.47;1.10;;;23.10;55.20;;;;;;7677816;22;80727;-60
2022/09/29 00:40:31;;;;;;;1.08;0.98;;;23.10;55.30;;;;;;7682815;22;80402;-61
2022/09/29 00:43:31;;;;;;;1.40;1.17;;;23.10;55.20;;;;;;7679121;22;80163;-60
2022/09/29 00:46:32;;;;;;;1.35;1.08;;;23.10;55.20;;;;;;7680775;22;81595;-59
2022/09/29 00:49:32;;;;;;;1.92;1.27;;;23.10;55.30;;;;;;7679306;22;80787;-61
2022/09/29 00:52:33;;;;;;;4.78;1.23;;;23.10;55.30;;;;;;7678692;22;80258;-60
2022/09/29 00:55:33;;;;;;;4.07;1.60;;;23.10;55.30;;;;;;7679703;22;80831;-60
2022/09/29 00:58:33;;;;;;;1.70;1.33;;;23.10;55.30;;;;;;7676541;22;80331;-51
2022/09/29 01:01:34;;;;;;;1.65;1.27;;;23.10;55.30;;;;;;7679027;22;80822;-50
2022/09/29 01:04:34;;;;;;;1.45;1.30;;;23.10;55.40;;;;;;7681017;22;81571;-50
2022/09/29 01:07:35;;;;;;;2.63;1.40;;;23.10;55.30;;;;;;7652135;22;80948;-52
2022/09/29 01:10:35;;;;;;;5.20;1.35;;;23.10;55.30;;;;;;7678627;22;81498;-50
2022/09/29 01:13:36;;;;;;;2.33;1.63;;;23.10;55.30;;;;;;7678235;22;80291;-53
2022/09/29 01:16:36;;;;;;;1.95;1.75;;;23.10;55.30;;;;;;7681821;22;80315;-58
2022/09/29 01:19:37;;;;;;;3.13;1.40;;;23.10;55.40;;;;;;7680765;22;80507;-58
2022/09/29 01:22:37;;;;;;;1.77;1.40;;;23.10;55.40;;;;;;7677386;22;81468;-59
2022/09/29 01:25:38;;;;;;;2.45;1.52;;;23.10;55.40;;;;;;7679863;22;80749;-59
2022/09/29 01:28:38;;;;;;;2.30;1.60;;;23.10;55.50;;;;;;7678702;22;80208;-58
2022/09/29 01:31:39;;;;;;;1.85;1.30;;;23.10;55.40;;;;;;7679506;22;80382;-58
2022/09/29 01:34:40;;;;;;;1.50;1.13;;;23.10;55.40;;;;;;7679856;22;80748;-58
2022/09/29 01:37:40;;;;;;;2.50;1.65;;;23.10;55.40;;;;;;7679024;22;82284;-57
2022/09/29 01:40:41;;;;;;;2.10;1.67;;;23.10;55.40;;;;;;7677563;22;80253;-58
2022/09/29 01:43:41;;;;;;;1.55;1.30;;;23.10;55.50;;;;;;7678098;22;81932;-58
2022/09/29 01:46:41;;;;;;;2.97;1.73;;;23.10;55.40;;;;;;7681501;22;80381;-57
2022/09/29 01:49:42;;;;;;;2.92;2.13;;;23.10;55.40;;;;;;7678916;22;80809;-60
2022/09/29 01:52:42;;;;;;;2.95;1.98;;;23.10;56.10;;;;;;7680817;22;79894;-61
2022/09/29 01:55:43;;;;;;;3.70;1.70;;;23.10;55.40;;;;;;7677239;22;80863;-63
2022/09/29 01:58:43;;;;;;;2.80;1.75;;;23.10;55.40;;;;;;7655113;22;82957;-62
2022/09/29 02:01:44;;;;;;;2.85;1.77;;;23.10;55.40;;;;;;7678668;22;80904;-63
2022/09/29 02:04:45;;;;;;;2.60;1.77;;;23.10;55.60;;;;;;7678506;22;80255;-61
2022/09/29 02:07:45;;;;;;;3.35;1.70;;;23.10;55.60;;;;;;7677928;22;81247;-62
2022/09/29 02:10:46;;;;;;;2.33;1.70;;;23.10;55.60;;;;;;7682346;22;81270;-61
2022/09/29 02:13:47;;;;;;;2.35;1.60;;;23.10;55.50;;;;;;7676203;22;80870;-61
2022/09/29 02:16:47;;;;;;;1.63;1.45;;;23.10;55.40;;;;;;7679334;22;80464;-60
2022/09/29 02:19:48;;;;;;;3.35;1.70;;;23.10;55.40;;;;;;7680181;22;80301;-61
2022/09/29 02:22:48;;;;;;;3.60;1.90;;;23.10;55.50;;;;;;7680378;22;80423;-61
2022/09/29 02:25:49;;;;;;;7.03;1.90;;;23.10;55.40;;;;;;7680446;22;80453;-60
2022/09/29 02:28:51;;;;;;;3.15;1.88;;;23.10;55.50;;;;;;7679924;22;80821;-51
2022/09/29 02:31:51;;;;;;;3.40;2.17;;;23.10;55.40;;;;;;7679049;22;81373;-52
2022/09/29 02:34:52;;;;;;;3.05;1.90;;;23.10;55.60;;;;;;7680431;22;81235;-51
2022/09/29 02:37:53;;;;;;;2.05;1.85;;;23.10;55.50;;;;;;7678032;22;82141;-49
2022/09/29 02:40:54;;;;;;;3.90;2.63;;;23.10;55.40;;;;;;7677626;22;80320;-49
2022/09/29 02:43:54;;;;;;;2.28;2.00;;;23.10;55.50;;;;;;7649705;22;81205;-53
2022/09/29 02:46:55;;;;;;;3.85;1.98;;;23.10;55.50;;;;;;7680885;22;80650;-48
2022/09/29 02:49:56;;;;;;;3.90;2.08;;;23.10;55.50;;;;;;7681098;22;81200;-55
2022/09/29 02:52:56;;;;;;;4.88;2.15;;;23.10;55.40;;;;;;7677953;22;80875;-52
2022/09/29 02:55:57;;;;;;;3.88;2.10;;;23.10;55.40;;;;;;7680343;22;80137;-51
2022/09/29 02:58:57;;;;;;;3.42;2.28;;;23.10;55.40;;;;;;7677653;22;82366;-49
2022/09/29 03:01:58;;;;;;;4.10;2.40;;;23.10;55.40;;;;;;7677999;22;80369;-51
2022/09/29 03:04:58;;;;;;;2.95;2.22;;;23.10;55.40;;;;;;7652188;22;83169;-60
2022/09/29 03:07:59;;;;;;;3.10;1.83;;;23.10;55.40;;;;;;7676883;22;80408;-60
2022/09/29 03:10:59;;;;;;;3.55;2.28;;;23.10;55.40;;;;;;7677379;22;80561;-60
2022/09/29 03:14:00;;;;;;;2.72;2.22;;;23.10;55.40;;;;;;7679468;22;80415;-60
2022/09/29 03:17:00;;;;;;;3.55;2.22;;;23.10;55.40;;;;;;7680192;22;80796;-61
2022/09/29 03:20:01;;;;;;;6.10;2.38;;;23.10;55.30;;;;;;7682628;22;80579;-61
2022/09/29 03:23:01;;;;;;;6.07;2.80;;;23.10;55.20;;;;;;7679170;22;79909;-60
2022/09/29 03:26:02;;;;;;;5.18;2.47;;;23.10;55.20;;;;;;7680578;22;80722;-59
2022/09/29 03:29:02;;;;;;;4.30;2.60;;;23.10;55.30;;;;;;7679899;22;80867;-60
2022/09/29 03:32:03;;;;;;;3.40;2.25;;;23.10;54.90;;;;;;7680816;22;80189;-60
2022/09/29 03:35:03;;;;;;;5.85;2.70;;;23.10;54.80;;;;;;7680539;22;81314;-60
2022/09/29 03:38:04;;;;;;;3.30;2.38;;;23.20;54.70;;;;;;7680523;22;80199;-61
2022/09/29 03:41:04;;;;;;;6.32;2.45;;;23.20;54.50;;;;;;7680886;22;80642;-60
2022/09/29 03:44:05;;;;;;;3.83;2.33;;;23.20;54.40;;;;;;7676727;22;80378;-52
2022/09/29 03:47:05;;;;;;;2.60;2.08;;;23.20;54.20;;;;;;7678162;22;80791;-51
2022/09/29 03:50:06;;;;;;;6.32;2.38;;;23.30;54.20;;;;;;7678519;22;80840;-51
2022/09/29 03:53:06;;;;;;;5.47;2.38;;;23.30;54.00;;;;;;7680472;22;81904;-54
2022/09/29 03:56:07;;;;;;;4.13;2.35;;;23.30;53.90;;;;;;7678411;22;80295;-53
2022/09/29 03:59:09;;;;;;;5.25;2.72;;;23.30;53.90;;;;;;7681021;22;80184;-55
2022/09/29 04:02:09;;;;;;;3.42;2.38;;;23.40;53.80;;;;;;7678410;22;80208;-54
2022/09/29 04:05:10;;;;;;;3.05;2.20;;;23.40;53.70;;;;;;7679630;22;83601;-54
2022/09/29 04:08:10;;;;;;;11.00;2.47;;;23.40;53.60;;;;;;7677214;22;83358;-53
2022/09/29 04:11:11;;;;;;;4.30;3.25;;;23.40;53.50;;;;;;7679685;22;80913;-56
2022/09/29 04:14:11;;;;;;;6.80;2.95;;;23.40;53.40;;;;;;7677553;22;80349;-53
2022/09/29 04:17:12;;;;;;;6.30;3.08;;;23.40;53.40;;;;;;7673466;22;79960;-58
2022/09/29 04:20:12;;;;;;;4.22;2.67;;;23.40;54.00;;;;;;7676482;22;80133;-60
2022/09/29 04:23:13;;;;;;;3.13;2.03;;;23.40;54.30;;;;;;7667860;22;81046;-53
2022/09/29 04:26:13;;;;;;;5.60;2.60;;;23.50;54.10;;;;;;7670521;22;80756;-53
2022/09/29 04:29:14;;;;;;;5.82;2.63;;;23.50;54.30;;;;;;7676776;22;80910;-52
2022/09/29 04:32:14;;;;;;;18.02;3.05;;;23.50;54.40;;;;;;7679309;22;80273;-53
2022/09/29 04:35:15;;;;;;;5.65;2.72;;;23.50;55.00;;;;;;7679825;22;80308;-55
2022/09/29 04:38:15;;;;;;;6.40;2.35;;;23.50;54.80;;;;;;7677342;22;80499;-59
2022/09/29 04:41:16;;;;;;;3.05;2.30;;;23.50;54.80;;;;;;7676234;22;80600;-58
2022/09/29 04:44:19;;;;;;;19.88;2.70;;;23.50;55.20;;;;;;7674355;22;80828;-57
2022/09/29 04:47:19;;;;;;;4.82;2.35;;;23.50;54.90;;;;;;7678928;22;82122;-58
2022/09/29 04:50:20;;;;;;;5.28;2.70;;;23.60;54.90;;;;;;7680827;22;80128;-59
2022/09/29 04:53:20;;;;;;;4.38;2.50;;;23.60;55.20;;;;;;7679561;22;80676;-59
2022/09/29 04:56:20;;;;;;;3.20;2.58;;;23.60;55.30;;;;;;7679700;22;80524;-49
2022/09/29 04:59:21;;;;;;;6.70;2.50;;;23.60;55.10;;;;;;7678661;22;80431;-50
2022/09/29 05:02:21;;;;;;;8.00;2.83;;;23.60;55.50;;;;;;7678967;22;81016;-62
2022/09/29 05:05:22;;;;;;;6.30;2.58;;;23.60;55.40;;;;;;7674473;22;79933;-61
2022/09/29 05:08:22;;;;;;;2.88;2.35;;;23.60;55.40;;;;;;7680798;22;81312;-64
2022/09/29 05:11:23;;;;;;;2.05;1.67;;;23.60;55.20;;;;;;7679165;22;80260;-65
2022/09/29 05:14:23;;;;;;;6.93;2.28;;;23.70;55.00;;;;;;7678775;22;80331;-60
2022/09/29 05:17:24;;;;;;;17.63;2.88;;;23.60;54.90;;;;;;7678614;22;80535;-58
2022/09/29 05:20:24;;;;;;;7.03;2.72;;;23.60;55.00;;;;;;7677505;22;80037;-57
2022/09/29 05:23:25;;;;;;;4.55;2.75;;;23.60;55.40;;;;;;7677074;22;80286;-58
2022/09/29 05:26:25;;;;;;;5.03;2.75;;;23.60;55.70;;;;;;7676530;22;81326;-57
2022/09/29 05:29:26;;;;;;;12.18;2.92;;;23.60;55.70;;;;;;7674645;22;81397;-60
2022/09/29 05:32:26;;;;;;;5.97;2.65;;;23.60;55.50;;;;;;7673056;22;80813;-59
2022/09/29 05:35:27;;;;;;;4.82;2.42;;;23.60;55.30;;;;;;7677388;22;80473;-59
2022/09/29 05:38:27;;;;;;;4.43;2.10;;;23.60;55.40;;;;;;7677647;22;80783;-58
2022/09/29 05:41:28;;;;;;;8.85;2.75;;;23.60;55.30;;;;;;7675809;22;80406;-59
2022/09/29 05:44:28;;;;;;;6.43;3.25;;;23.50;55.10;;;;;;7678943;22;80302;-58
2022/09/29 05:47:29;;;;;;;6.90;3.05;;;23.60;55.20;;;;;;7672878;22;80672;-58
2022/09/29 05:50:30;;;;;;;9.13;2.70;;;23.50;54.90;;;;;;7670604;22;81196;-60
2022/09/29 05:53:30;;;;;;;4.45;2.75;;;23.50;55.20;;;;;;7669796;22;81173;-62
2022/09/29 05:56:31;;;;;;;7.00;2.33;;;23.50;55.10;;;;;;7675032;22;80556;-67
2022/09/29 05:59:31;;;;;;;3.85;2.22;;;23.50;55.10;;;;;;7678491;22;80712;-63
2022/09/29 06:02:32;;;;;;;5.55;2.70;;;23.50;55.10;;;;;;7667077;22;81253;-64
2022/09/29 06:05:34;;;;;;;9.95;2.75;;;23.50;55.10;;;;;;7670878;22;80478;-64
2022/09/29 06:08:35;;;;;;;7.22;2.55;;;23.50;54.90;;;;;;7671962;22;80668;-63
2022/09/29 06:11:35;;;;;;;5.75;2.72;;;23.40;55.00;;;;;;7672295;22;81218;-64
2022/09/29 06:14:36;;;;;;;3.95;2.10;;;23.40;54.90;;;;;;7672776;22;80291;-61
2022/09/29 06:17:36;;;;;;;6.72;2.70;;;23.40;54.80;;;;;;7672983;22;80059;-62
2022/09/29 06:20:39;;;;;;;5.80;2.63;;;23.40;54.90;;;;;;7676015;22;80215;-61
2022/09/29 06:23:40;;;;;;;10.45;3.08;;;23.40;54.60;;;;;;7675428;22;80528;-62
2022/09/29 06:26:40;;;;;;;4.13;2.47;;;23.40;54.60;;;;;;7674491;22;81592;-65
2022/09/29 06:29:41;;;;;;;5.43;2.80;;;23.40;54.50;;;;;;7666925;22;80507;-63
2022/09/29 06:32:41;;;;;;;5.45;2.88;;;23.40;54.50;;;;;;7678228;22;80375;-66
2022/09/29 06:39:01;;;;;;;4.90;2.28;;;23.40;54.60;;;;;;7679449;22;80465;-63
2022/09/29 06:42:02;;;;;;;4.20;2.17;;;23.50;54.60;;;;;;7675521;22;80523;-63
2022/09/29 06:45:03;;;;;;;6.45;2.78;;;23.50;54.50;;;;;;7678161;22;81339;-63
2022/09/29 06:48:04;;;;;;;4.28;2.30;;;23.50;54.50;;;;;;7679621;22;80858;-59
2022/09/29 06:51:04;;;;;;;3.55;2.50;;;23.40;54.40;;;;;;7677388;22;80974;-59
2022/09/29 06:54:05;;;;;;;6.07;2.30;;;23.40;54.30;;;;;;7679165;22;80843;-58
2022/09/29 06:57:05;;;;;;;2.97;2.17;;;23.40;54.30;;;;;;7679717;22;80391;-59
2022/09/29 07:00:06;;;;;;;1.80;1.65;;;23.40;54.40;;;;;;7679338;22;80297;-59
2022/09/29 07:03:06;;;;;;;3.53;2.30;;;23.40;54.20;;;;;;7665878;22;81488;-59
2022/09/29 07:06:07;;;;;;;2.95;2.17;;;23.50;54.30;;;;;;7677663;22;80358;-58
2022/09/29 07:09:14;;;;;;;5.85;2.40;;;23.50;54.30;;;;;;7681220;22;80301;-59
2022/09/29 07:12:14;;;;;;;7.93;2.60;;;23.50;54.30;;;;;;7681523;22;80186;-58
2022/09/29 07:15:15;;;;;;;4.38;2.58;;;23.50;54.00;;;;;;7681945;22;81434;-71
2022/09/29 07:18:15;;;;;;;3.58;2.20;;;23.50;54.20;;;;;;7681128;22;81223;-70
2022/09/29 07:21:20;;;;;;;3.92;2.40;;;23.50;54.20;;;;;;7683545;22;80535;-65
2022/09/29 07:24:21;;;;;;;4.25;2.22;;;23.50;54.00;;;;;;7682162;22;80743;-67
2022/09/29 07:27:23;;;;;;;4.85;2.30;;;23.50;54.00;;;;;;7682287;22;80848;-73
2022/09/29 07:30:23;;;;;;;2.78;1.88;;;23.50;53.80;;;;;;7675360;22;80455;-59
2022/09/29 07:33:24;;;;;;;3.55;2.15;;;23.50;53.90;;;;;;7676698;22;80617;-58
2022/09/29 07:36:24;;;;;;;7.40;2.45;;;23.50;53.60;;;;;;7676637;22;80217;-58
2022/09/29 07:39:25;;;;;;;5.53;1.83;;;23.50;53.70;;;;;;7678372;22;80560;-60
2022/09/29 07:42:25;;;;;;;4.78;1.77;;;23.50;53.60;;;;;;7682125;22;81033;-56
2022/09/29 07:45:28;;;;;;;3.70;1.98;;;23.50;53.50;;;;;;7678019;22;81378;-54
2022/09/29 07:48:29;;;;;;;2.78;2.00;;;23.40;53.50;;;;;;7681287;22;80247;-52
2022/09/29 07:51:29;;;;;;;4.10;2.10;;;23.40;53.50;;;;;;7682062;22;80121;-56
2022/09/29 07:54:30;;;;;;;3.50;2.15;;;23.40;53.70;;;;;;7681899;22;80554;-55
2022/09/29 07:57:30;;;;;;;1.58;1.48;;;23.40;53.60;;;;;;7681508;22;80492;-55
2022/09/29 08:00:31;;;;;;;5.75;1.88;;;23.40;53.50;;;;;;7682787;22;81117;-55
2022/09/29 08:03:31;;;;;;;2.22;1.48;;;23.40;53.40;;;;;;7681126;22;82251;-52
2022/09/29 08:06:32;;;;;;;2.92;1.52;;;23.40;53.50;;;;;;7681644;22;80656;-55
2022/09/29 08:09:32;;;;;;;2.67;1.90;;;23.40;53.40;;;;;;7679799;22;80750;-63
2022/09/29 08:12:33;;;;;;;3.50;1.77;;;23.40;53.30;;;;;;7681697;22;80882;-64
2022/09/29 08:15:33;;;;;;;3.63;2.28;;;23.40;53.30;;;;;;7678631;22;80158;-55
2022/09/29 08:18:34;;;;;;;5.80;2.20;;;23.40;53.30;;;;;;7682686;22;80262;-61
2022/09/29 08:21:35;;;;;;;3.53;1.85;;;23.40;53.40;;;;;;7678687;22;80786;-59
2022/09/29 08:24:39;;;;;;;2.75;2.03;;;23.40;54.00;;;;;;7681128;22;80891;-60
2022/09/29 08:27:39;;;;;;;3.90;2.47;;;23.40;54.20;;;;;;7680070;22;81555;-60
2022/09/29 08:30:40;;;;;;;6.15;2.03;;;23.40;54.40;;;;;;7680809;22;81598;-61
2022/09/29 08:33:40;;;;;;;4.30;1.83;;;23.40;54.50;;;;;;7680019;22;85697;-60
2022/09/29 08:36:41;;;;;;;3.63;2.22;;;23.40;54.50;;;;;;7680279;22;80340;-62
2022/09/29 08:39:41;;;;;;;3.42;1.83;;;23.40;54.50;;;;;;7682299;22;81004;-60
2022/09/29 08:42:42;;;;;;;3.08;1.80;;;23.40;54.60;;;;;;7678423;22;80275;-60
2022/09/29 08:45:42;;;;;;;3.33;2.17;;;23.40;54.50;;;;;;7679511;22;80755;-61
2022/09/29 08:48:43;;;;;;;2.80;1.58;;;23.40;54.30;;;;;;7679286;22;80263;-61
2022/09/29 08:51:43;;;;;;;5.32;1.73;;;23.40;54.20;;;;;;7682591;22;80246;-60
2022/09/29 08:54:44;;;;;;;2.65;1.83;;;23.40;54.20;;;;;;7680819;22;80220;-61
2022/09/29 08:57:44;;;;;;;4.28;1.73;;;23.40;54.10;;;;;;7676373;22;80431;-61
2022/09/29 09:00:45;;;;;;;3.70;1.83;;;23.40;54.10;;;;;;7678745;22;80470;-61
2022/09/29 09:03:45;;;;;;;3.72;1.98;;;23.40;54.00;;;;;;7680783;22;80923;-61
2022/09/29 09:06:46;;;;;;;4.22;2.10;;;23.40;54.00;;;;;;7680898;22;80299;-61
2022/09/29 09:09:47;;;;;;;4.13;1.88;;;23.40;53.90;;;;;;7678348;22;80146;-61
2022/09/29 09:12:47;;;;;;;3.88;2.10;;;23.40;53.90;;;;;;7679442;22;81501;-61
2022/09/29 09:15:48;;;;;;;1.77;1.45;;;23.40;53.90;;;;;;7683416;22;80209;-59
2022/09/29 09:18:49;;;;;;;2.65;1.55;;;23.40;53.80;;;;;;7682256;22;80072;-60
2022/09/29 09:21:50;;;;;;;6.80;1.98;;;23.40;53.70;;;;;;7681378;22;81201;-61
2022/09/29 09:24:50;;;;;;;4.68;1.67;;;23.40;53.70;;;;;;7684820;22;80903;-61
2022/09/29 09:27:51;;;;;;;3.10;1.63;;;23.40;53.70;;;;;;7658207;22;81458;-60
2022/09/29 09:30:51;;;;;;;2.88;1.58;;;23.40;53.60;;;;;;7680678;22;80222;-57
2022/09/29 09:33:52;;;;;;;5.60;2.10;;;23.40;53.50;;;;;;7653724;22;83471;-58
2022/09/29 09:36:52;;;;;;;2.15;1.60;;;23.40;53.60;;;;;;7679198;22;80202;-60
2022/09/29 09:39:53;;;;;;;3.10;2.17;;;23.40;53.80;;;;;;7647742;22;81832;-59
2022/09/29 09:42:55;;;;;;;4.13;1.92;;;23.50;54.00;;;;;;7678590;22;80358;-60
2022/09/29 09:45:55;;;;;;;2.55;1.70;;;23.50;54.20;;;;;;7681632;22;80370;-59
2022/09/29 09:48:56;;;;;;;3.60;2.15;;;23.50;54.30;;;;;;7679691;22;80314;-59
2022/09/29 09:51:57;;;;;;;4.28;1.60;;;23.50;54.20;;;;;;7682965;22;80316;-61
2022/09/29 09:54:57;;;;;;;2.88;1.42;;;23.50;54.50;;;;;;7681259;22;80394;-61
2022/09/29 09:57:59;;;;;;;1.98;1.58;;;23.50;54.90;;;;;;7677854;22;81248;-61
2022/09/29 10:00:59;;;;;;;4.95;1.48;;;23.60;54.20;;;;;;7681075;22;81174;-62
2022/09/29 10:04:00;;;;;;;3.13;1.73;;;23.60;54.20;;;;;;7680123;22;80506;-62
2022/09/29 10:07:00;;;;;;;11.18;1.95;;;23.60;54.20;;;;;;7683469;22;81306;-61
2022/09/29 10:10:01;;;;;;;1.95;1.35;;;23.60;54.20;;;;;;7675989;22;80261;-62
2022/09/29 10:13:01;;;;;;;5.15;1.95;;;23.60;54.20;;;;;;7680941;22;80822;-62
2022/09/29 10:16:02;;;;;;;2.15;1.50;;;23.60;53.90;;;;;;7680553;22;80387;-63
2022/09/29 10:19:03;;;;;;;10.77;1.55;;;23.60;54.00;;;;;;7679820;22;80311;-63
2022/09/29 10:22:03;;;;;;;2.50;1.42;;;23.60;53.80;;;;;;7679638;22;81725;-62
2022/09/29 10:25:04;;;;;;;2.25;1.40;;;23.70;53.60;;;;;;7672747;22;80423;-63
2022/09/29 10:28:04;;;;;;;2.20;1.30;;;23.60;53.60;;;;;;7680711;22;80305;-62
2022/09/29 10:31:05;;;;;;;3.10;1.50;;;23.70;53.60;;;;;;7680204;22;80277;-62
2022/09/29 10:34:05;;;;;;;2.60;1.58;;;23.60;53.60;;;;;;7681255;22;81949;-62
2022/09/29 10:37:05;;;;;;;3.35;1.50;;;23.60;54.20;;;;;;7680088;22;80243;-63
2022/09/29 10:40:06;;;;;;;4.05;1.42;;;23.60;53.30;;;;;;7680113;22;80721;-62
2022/09/29 10:43:06;;;;;;;2.70;1.73;;;23.60;53.60;;;;;;7677277;22;80945;-61
2022/09/29 10:46:07;;;;;;;4.50;2.17;;;23.60;53.70;;;;;;7681800;22;80285;-62
2022/09/29 10:49:08;;;;;;;4.97;2.40;;;23.60;53.50;;;;;;7677264;22;81680;-61
2022/09/29 10:52:09;;;;;;;4.85;2.30;;;23.60;53.60;;;;;;7680403;22;80315;-63
2022/09/29 10:55:09;;;;;;;3.85;1.98;;;23.60;53.90;;;;;;7676980;22;80380;-62
2022/09/29 10:58:10;;;;;;;4.15;1.95;;;23.60;54.00;;;;;;7678846;22;81041;-62
2022/09/29 11:01:10;;;;;;;6.10;2.60;;;23.60;54.20;;;;;;7680179;22;81548;-62
2022/09/29 11:04:11;;;;;;;4.68;2.22;;;23.50;54.20;;;;;;7679686;22;80265;-62
2022/09/29 11:07:11;;;;;;;10.20;3.08;;;23.50;54.10;;;;;;7674445;22;80454;-61
2022/09/29 11:10:12;;;;;;;3.63;1.73;;;23.50;54.10;;;;;;7678597;22;81615;-62
2022/09/29 11:13:12;;;;;;;5.75;2.05;;;23.50;54.50;;;;;;7679499;22;80294;-61
2022/09/29 11:16:14;;;;;;;6.00;1.90;;;23.50;54.10;;;;;;7677066;22;80115;-62
2022/09/29 11:19:14;;;;;;;5.20;2.00;;;23.60;54.10;;;;;;7680984;22;80301;-63
2022/09/29 11:22:15;;;;;;;3.83;1.73;;;23.60;53.90;;;;;;7675989;22;80915;-56
2022/09/29 11:25:15;;;;;;;7.65;2.47;;;23.60;53.80;;;;;;7682783;22;81044;-56
2022/09/29 11:28:16;;;;;;;2.47;1.73;;;23.60;53.60;;;;;;7680738;22;80307;-56
2022/09/29 11:31:16;;;;;;;2.65;1.42;;;23.60;53.70;;;;;;7679338;22;80737;-53
2022/09/29 11:34:17;;;;;;;6.05;1.85;;;23.60;53.60;;;;;;7682348;22;80247;-53
2022/09/29 11:37:17;;;;;;;4.93;1.70;;;23.60;53.50;;;;;;7675889;22;80784;-55
2022/09/29 11:40:18;;;;;;;2.55;1.52;;;23.60;53.50;;;;;;7682229;22;80095;-55
2022/09/29 11:43:18;;;;;;;2.47;1.42;;;23.60;53.40;;;;;;7680983;22;81236;-56
2022/09/29 11:46:19;;;;;;;1.38;1.27;;;23.60;53.60;;;;;;7681935;22;80395;-54
2022/09/29 11:49:20;;;;;;;3.88;1.90;;;23.60;53.20;;;;;;7676341;22;79990;-56
2022/09/29 11:52:20;;;;;;;1.98;1.40;;;23.60;53.20;;;;;;7679554;22;81472;-56
2022/09/29 11:55:21;;;;;;;3.28;1.50;;;23.60;53.10;;;;;;7683141;22;80884;-55
2022/09/29 11:58:21;;;;;;;3.35;1.83;;;23.60;53.00;;;;;;7681615;22;80344;-60
2022/09/29 12:01:22;;;;;;;1.98;1.55;;;23.60;52.70;;;;;;7682919;22;80668;-61
2022/09/29 12:04:22;;;;;;;2.13;1.42;;;23.60;52.70;;;;;;7681242;22;82791;-61
2022/09/29 12:07:23;;;;;;;2.72;1.85;;;23.60;52.80;;;;;;7679792;22;81582;-60
2022/09/29 12:10:23;;;;;;;2.85;1.67;;;23.70;52.90;;;;;;7680153;22;80404;-60
2022/09/29 12:13:24;;;;;;;2.95;1.70;;;23.70;52.90;;;;;;7681398;22;80373;-59
2022/09/29 12:16:24;;;;;;;2.28;1.70;;;23.70;52.80;;;;;;7682989;22;80181;-55
2022/09/29 12:19:25;;;;;;;1.42;1.30;;;23.70;52.60;;;;;;7683606;22;81169;-55
2022/09/29 12:22:26;;;;;;;3.03;2.03;;;23.70;52.40;;;;;;7680096;22;80408;-54
2022/09/29 12:25:26;;;;;;;3.55;1.90;;;23.70;52.30;;;;;;7681382;22;80606;-54
2022/09/29 12:28:27;;;;;;;4.97;1.70;;;23.70;52.10;;;;;;7681490;22;80434;-54
2022/09/29 12:31:27;;;;;;;4.63;2.35;;;23.60;52.00;;;;;;7670144;22;80388;-53
2022/09/29 12:34:28;;;;;;;4.50;1.45;;;23.70;51.90;;;;;;7679034;22;81416;-55
2022/09/29 12:37:28;;;;;;;3.50;1.63;;;23.60;51.80;;;;;;7673620;22;81446;-55
2022/09/29 12:40:32;;;;;;;1.88;1.35;;;23.60;51.70;;;;;;7676419;22;80637;-57
2022/09/29 12:43:33;;;;;;;5.18;1.50;;;23.60;51.80;;;;;;7676381;22;80024;-55
2022/09/29 12:46:36;;;;;;;2.65;1.38;;;23.60;51.70;;;;;;7677281;22;80751;-54
2022/09/29 12:49:37;;;;;;;4.22;1.48;;;23.60;51.60;;;;;;7675901;22;80385;-56
2022/09/29 12:52:38;;;;;;;3.25;1.52;;;23.60;51.60;;;;;;7677530;22;80338;-61
2022/09/29 12:55:38;;;;;;;1.73;1.30;;;23.60;51.80;;;;;;7678729;22;80916;-53
2022/09/29 12:58:39;;;;;;;2.15;1.58;;;23.60;51.30;;;;;;7679656;22;80250;-51
2022/09/29 13:01:39;;;;;;;1.67;1.40;;;23.50;50.70;;;;;;7680352;22;80230;-49
2022/09/29 13:04:40;;;;;;;4.28;1.38;;;23.50;50.70;;;;;;7675521;22;80386;-53
2022/09/29 13:07:41;;;;;;;1.60;1.20;;;23.50;50.30;;;;;;7674267;22;80712;-54
2022/09/29 13:10:41;;;;;;;2.55;1.38;;;23.40;50.30;;;;;;7677875;22;80757;-50
2022/09/29 13:13:42;;;;;;;3.03;1.45;;;23.40;50.20;;;;;;7678988;22;80267;-51
2022/09/29 13:16:43;;;;;;;1.60;1.23;;;23.40;50.30;;;;;;7680054;22;80283;-49
2022/09/29 13:19:43;;;;;;;1.17;1.05;;;23.30;50.00;;;;;;7677978;22;80298;-54
2022/09/29 13:22:44;;;;;;;4.18;1.73;;;23.40;50.50;;;;;;7674530;22;80827;-50
2022/09/29 13:25:44;;;;;;;2.40;1.30;;;23.30;50.10;;;;;;7680313;22;81521;-67
2022/09/29 13:28:45;;;;;;;1.58;1.40;;;23.20;49.70;;;;;;7681615;22;80408;-52
2022/09/29 13:31:46;;;;;;;11.20;1.45;;;23.10;50.10;;;;;;7680204;22;80442;-62
2022/09/29 13:34:46;;;;;;;9.25;1.33;;;23.10;50.50;;;;;;7678209;22;80441;-57
2022/09/29 13:37:47;;;;;;;3.58;1.60;;;23.20;50.80;;;;;;7678183;22;81568;-55
2022/09/29 13:40:47;;;;;;;10.30;1.63;;;23.20;51.40;;;;;;7679991;22;80291;-57
2022/09/29 13:43:48;;;;;;;4.95;1.60;;;23.30;51.40;;;;;;7681932;22;80282;-55
2022/09/29 13:46:49;;;;;;;2.88;1.55;;;23.30;51.80;;;;;;7684134;22;80471;-56
2022/09/29 13:49:49;;;;;;;7.38;1.33;;;23.30;52.00;;;;;;7675539;22;80396;-55
2022/09/29 13:52:50;;;;;;;3.88;1.85;;;23.40;51.80;;;;;;7678688;22;80436;-56
2022/09/29 13:55:50;;;;;;;2.28;1.38;;;23.40;51.80;;;;;;7672929;22;81542;-54
2022/09/29 13:58:51;;;;;;;3.60;1.42;;;23.40;51.80;;;;;;7647285;22;80771;-55
2022/09/29 14:01:52;;;;;;;4.05;1.52;;;23.40;51.80;;;;;;7668898;22;81274;-54
2022/09/29 14:04:54;;;;;;;2.25;1.65;;;23.40;51.80;;;;;;7674827;22;81133;-54
2022/09/29 14:07:55;;;;;;;3.35;1.40;;;23.40;51.80;;;;;;7672785;22;80017;-61
2022/09/29 14:10:56;;;;;;;4.25;1.10;;;23.50;51.80;;;;;;7677728;22;80523;-61
2022/09/29 14:13:56;;;;;;;2.38;0.93;;;23.40;51.80;;;;;;7675967;22;81701;-61
2022/09/29 14:16:57;;;;;;;2.28;1.27;;;23.50;51.90;;;;;;7668005;22;80327;-61
2022/09/29 14:19:57;;;;;;;1.85;1.35;;;23.50;52.00;;;;;;7674739;22;81342;-62
2022/09/29 14:22:58;;;;;;;1.80;1.30;;;23.50;52.10;;;;;;7675865;22;80682;-64
2022/09/29 14:25:59;;;;;;;2.50;1.42;;;23.50;52.00;;;;;;7678467;22;81682;-61
2022/09/29 14:29:02;;;;;;;2.55;1.63;;;23.50;52.20;;;;;;7682464;22;80628;-62
2022/09/29 14:32:03;;;;;;;2.35;1.20;;;23.50;52.20;;;;;;7675356;22;79864;-63
2022/09/29 14:35:04;;;;;;;2.47;1.45;;;23.50;52.10;;;;;;7681374;22;80123;-62
2022/09/29 14:38:05;;;;;;;2.78;1.20;;;23.50;52.20;;;;;;7681104;22;81944;-62
2022/09/29 14:41:06;;;;;;;1.65;1.40;;;23.50;52.40;;;;;;7680662;22;80337;-64
2022/09/29 14:44:06;;;;;;;2.03;1.10;;;23.60;52.30;;;;;;7682720;22;80519;-60
2022/09/29 14:53:59;;;;;;;4.60;1.42;;;23.60;52.40;;;;;;7678053;22;80747;-60
2022/09/29 14:56:59;;;;;;;2.60;1.42;;;23.60;52.40;;;;;;7674642;22;80458;-60
2022/09/29 15:00:00;;;;;;;2.10;1.38;;;23.60;52.30;;;;;;7669261;22;80379;-60
2022/09/29 15:03:01;;;;;;;2.15;1.38;;;23.60;52.30;;;;;;7675370;22;79840;-55
2022/09/29 15:06:01;;;;;;;1.20;1.10;;;23.70;52.50;;;;;;7677007;22;80596;-58
2022/09/29 15:09:02;;;;;;;2.45;1.48;;;23.70;52.50;;;;;;7681822;22;80369;-58
2022/09/29 15:12:03;;;;;;;4.10;1.38;;;23.60;52.30;;;;;;7680946;22;80746;-58
2022/09/29 15:15:03;;;;;;;1.92;1.20;;;23.60;52.40;;;;;;7681673;22;79923;-58
2022/09/29 15:18:05;;;;;;;2.20;1.20;;;23.60;52.20;;;;;;7682833;22;80494;-55
2022/09/29 15:21:06;;;;;;;2.65;1.40;;;23.60;52.30;;;;;;7680831;22;80703;-56
2022/09/29 15:24:07;;;;;;;1.98;1.52;;;23.60;52.40;;;;;;7682991;22;80988;-57
2022/09/29 15:27:08;;;;;;;2.85;1.25;;;23.60;52.30;;;;;;7679565;22;80659;-59
2022/09/29 15:30:08;;;;;;;3.58;1.27;;;23.50;52.40;;;;;;7675594;22;80577;-57
2022/09/29 15:33:09;;;;;;;4.32;1.40;;;23.60;52.50;;;;;;7681614;22;80226;-58
2022/09/29 15:36:11;;;;;;;3.15;1.50;;;23.60;52.40;;;;;;7680860;22;80341;-58
2022/09/29 15:39:12;;;;;;;2.53;1.58;;;23.60;52.50;;;;;;7682166;22;79871;-59
2022/09/29 15:42:14;;;;;;;2.20;1.45;;;23.50;52.50;;;;;;7679066;22;80654;-55
2022/09/29 15:45:14;;;;;;;2.55;1.40;;;23.60;52.60;;;;;;7681852;22;80797;-56
2022/09/29 15:48:15;;;;;;;2.60;1.60;;;23.50;52.60;;;;;;7681846;22;80128;-55